Millbrook, Alabama
Current Conditions -  °F | °C
As of 5:58 PM on Wednesday 22 Oct 2014 (Local Time) from KMXF Reporting Station
Clear Clear  
Wind Chill: 65°   Ceiling: Unl
Heat Index: 65°   Visibility: 10mi
Dew Point: 45°   Wind: 6mph
Humidity: 48%   Direction: 340°NNW
Pressure: 30.07"   Gusts: NA
Location:  32.48°N, 86.36°W
Report Text: KMXF 222258Z AUTO 34005KT 10SM CLR 19/07 A3007 RMK AO2 SLP185 T01850072
Loading
Personal Weather Stations






























Interactive Weather Map
Tropical Storm Tracking
New forecast layout! Learn more

10-Day Weather Forecast

Advertisements
Track Severe Weather on mobile